createdAt,value
2016-08-23T00:00:49.517Z,56.32
2016-08-23T00:01:49.554Z,56.32
2016-08-23T00:02:50.144Z,56.22
2016-08-23T00:03:49.466Z,56.32
2016-08-23T00:04:50.200Z,56.61
2016-08-23T00:05:49.437Z,56.41
2016-08-23T00:06:49.658Z,56.32
2016-08-23T00:07:50.254Z,56.8
2016-08-23T00:08:49.538Z,56.22
2016-08-23T00:09:50.257Z,56.13
2016-08-23T00:10:50.250Z,56.22
2016-08-23T00:11:49.536Z,56.22
2016-08-23T00:12:50.289Z,56.22
2016-08-23T00:13:50.305Z,56.51
2016-08-23T00:14:50.454Z,56.13
2016-08-23T00:15:50.210Z,56.22
2016-08-23T00:16:49.592Z,56.22
2016-08-23T00:17:49.630Z,56.22
2016-08-23T00:18:50.322Z,56.32
2016-08-23T00:19:50.325Z,56.71
2016-08-23T00:20:49.539Z,56.22
2016-08-23T00:21:50.290Z,56.22
2016-08-23T00:22:50.349Z,56.32
2016-08-23T00:23:50.415Z,56.32
2016-08-23T00:24:50.277Z,56.22
2016-08-23T00:25:50.412Z,56.32
2016-08-23T00:26:50.402Z,56.22
2016-08-23T00:27:49.586Z,56.22
2016-08-23T00:28:50.406Z,56.22
2016-08-23T00:29:50.446Z,56.32
2016-08-23T00:30:50.422Z,56.32
2016-08-23T00:31:50.450Z,56.32
2016-08-23T00:32:50.493Z,56.41
2016-08-23T00:33:50.497Z,56.13
2016-08-23T00:34:50.431Z,56.22
2016-08-23T00:35:50.418Z,56.22
2016-08-23T00:36:50.459Z,56.41
2016-08-23T00:37:50.539Z,56.22
2016-08-23T00:38:50.478Z,56.61
2016-08-23T00:39:49.775Z,56.41
2016-08-23T00:40:49.693Z,56.13
2016-08-23T00:41:50.461Z,56.41
2016-08-23T00:42:50.799Z,56.32
2016-08-23T00:43:52.024Z,56.41
2016-08-23T00:44:50.524Z,56.32
2016-08-23T00:45:49.890Z,56.32
2016-08-23T00:46:50.539Z,56.32
2016-08-23T00:47:49.724Z,56.32
2016-08-23T00:48:50.551Z,56.41
2016-08-23T00:49:50.532Z,56.41
2016-08-23T00:50:50.757Z,56.41
2016-08-23T00:51:50.601Z,56.51
2016-08-23T00:52:50.642Z,56.61
2016-08-23T00:53:50.588Z,56.41
2016-08-23T00:54:50.607Z,56.71
2016-08-23T00:55:50.608Z,56.41
2016-08-23T00:56:50.547Z,56.41
2016-08-23T00:57:50.554Z,56.41
2016-08-23T00:58:50.535Z,56.41
2016-08-23T00:59:50.640Z,56.61
2016-08-23T01:00:49.992Z,56.51
2016-08-23T01:01:50.621Z,56.32
2016-08-23T01:02:50.543Z,56.8
2016-08-23T01:03:50.664Z,56.13
2016-08-23T01:04:50.645Z,56.22
2016-08-23T01:05:51.746Z,56.8
2016-08-23T01:06:50.573Z,56.22
2016-08-23T01:07:49.861Z,56.32
2016-08-23T01:08:49.971Z,56.71
2016-08-23T01:09:50.016Z,56.8
2016-08-23T01:10:50.719Z,56.61
2016-08-23T01:11:50.687Z,56.71
2016-08-23T01:12:49.925Z,56.41
2016-08-23T01:14:04.782Z,56.71
2016-08-23T01:14:49.911Z,56.61
2016-08-23T01:15:50.666Z,56.61
2016-08-23T01:16:49.921Z,56.41
2016-08-23T01:17:50.696Z,56.51
2016-08-23T01:18:50.657Z,56.8
2016-08-23T01:19:50.724Z,56.32
2016-08-23T01:20:50.754Z,56.41
2016-08-23T01:21:51.490Z,56.41
2016-08-23T01:22:50.111Z,56.51
2016-08-23T01:23:50.031Z,56.71
2016-08-23T01:24:50.887Z,56.32
2016-08-23T01:25:50.756Z,56.41
2016-08-23T01:26:50.725Z,56.32
2016-08-23T01:27:50.751Z,56.41
2016-08-23T01:28:50.758Z,56.61
2016-08-23T01:29:50.908Z,56.71
2016-08-23T01:30:50.886Z,56.8
2016-08-23T01:31:50.863Z,56.71
2016-08-23T01:32:50.933Z,56.32
2016-08-23T01:33:50.746Z,56.71
2016-08-23T01:34:50.901Z,56.51
2016-08-23T01:35:50.841Z,56.41
2016-08-23T01:36:50.061Z,56.32
2016-08-23T01:37:50.848Z,56.71
2016-08-23T01:38:50.820Z,56.71
2016-08-23T01:39:50.954Z,56.61
2016-08-23T01:40:50.817Z,56.51
2016-08-23T01:41:50.859Z,56.61
2016-08-23T01:42:50.878Z,56.51
2016-08-23T01:43:50.922Z,56.41
2016-08-23T01:44:50.824Z,56.41
2016-08-23T01:45:50.972Z,56.61
2016-08-23T01:46:50.973Z,56.71
2016-08-23T01:47:50.956Z,56.41
2016-08-23T01:48:50.174Z,56.51
2016-08-23T01:49:50.157Z,56.61
2016-08-23T01:50:50.976Z,56.13
2016-08-23T01:51:50.901Z,56.41
2016-08-23T01:52:50.233Z,56.41
2016-08-23T01:53:50.333Z,56.41
2016-08-23T01:54:51.062Z,56.8
2016-08-23T01:55:50.960Z,56.8
2016-08-23T01:56:50.938Z,56.32
2016-08-23T01:57:51.064Z,56.61
2016-08-23T01:58:50.277Z,56.51
2016-08-23T01:59:51.335Z,56.51
2016-08-23T02:00:50.331Z,56.71
2016-08-23T02:01:50.278Z,56.61
2016-08-23T02:02:50.979Z,56.41
2016-08-23T02:03:51.115Z,56.8
2016-08-23T02:04:50.333Z,56.41
2016-08-23T02:05:50.285Z,56.61
2016-08-23T02:06:51.046Z,56.51
2016-08-23T02:07:50.982Z,56.13
2016-08-23T02:08:50.282Z,56.03
2016-08-23T02:09:50.309Z,56.22
2016-08-23T02:10:51.103Z,56.51
2016-08-23T02:11:50.416Z,56.71
2016-08-23T02:12:50.308Z,55.74
2016-08-23T02:13:50.373Z,56.51
2016-08-23T02:14:50.396Z,56.13
2016-08-23T02:15:50.402Z,56.41
2016-08-23T02:16:51.218Z,56.22
2016-08-23T02:17:50.438Z,56.41
2016-08-23T02:18:51.152Z,56.13
2016-08-23T02:19:51.089Z,56.61
2016-08-23T02:20:50.490Z,56.71
2016-08-23T02:21:50.381Z,56.61
2016-08-23T02:22:51.259Z,56.41
2016-08-23T02:23:51.124Z,56.51
2016-08-23T02:24:51.242Z,56.51
2016-08-23T02:25:50.472Z,56.22
2016-08-23T02:26:51.135Z,56.71
2016-08-23T02:27:51.246Z,56.8
2016-08-23T02:28:51.239Z,56.51
2016-08-23T02:29:50.446Z,56.61
2016-08-23T02:30:51.144Z,56.61
2016-08-23T02:31:50.625Z,56.61
2016-08-23T02:32:50.445Z,56.13
2016-08-23T02:33:50.483Z,56.61
2016-08-23T02:34:51.288Z,56.22
2016-08-23T02:35:50.466Z,56.51
2016-08-23T02:36:51.180Z,55.93
2016-08-23T02:37:50.600Z,56.41
2016-08-23T02:38:51.295Z,56.03
2016-08-23T02:39:51.332Z,56.51
2016-08-23T02:40:52.188Z,56.13
2016-08-23T02:41:50.598Z,56.13
2016-08-23T02:42:51.304Z,56.51
2016-08-23T02:43:51.341Z,56.58
2016-08-23T02:44:52.064Z,56.71
2016-08-23T02:45:51.291Z,56.61
2016-08-23T02:46:51.358Z,56.41
2016-08-23T02:47:51.262Z,56.41
2016-08-23T02:48:51.428Z,56.71
2016-08-23T02:49:52.393Z,55.93
2016-08-23T02:50:51.287Z,56.71
2016-08-23T02:51:50.656Z,56.13
2016-08-23T02:52:50.646Z,56.22
2016-08-23T02:53:51.457Z,56.51
2016-08-23T02:54:51.435Z,56.2
2016-08-23T02:55:51.444Z,56.48
2016-08-23T02:56:51.348Z,56.41
2016-08-23T02:57:51.484Z,56.77
2016-08-23T02:58:51.394Z,56.22
2016-08-23T02:59:51.495Z,56.13
2016-08-23T03:00:50.696Z,56.71
2016-08-23T03:01:51.492Z,56.39
2016-08-23T03:02:50.789Z,56.39
2016-08-23T03:03:50.737Z,56.61
2016-08-23T03:04:51.375Z,56.68
2016-08-23T03:05:51.486Z,56.68
2016-08-23T03:06:51.450Z,56.41
2016-08-23T03:07:51.472Z,56.41
2016-08-23T03:08:51.418Z,56.39
2016-08-23T03:09:51.482Z,56.51
2016-08-23T03:10:50.871Z,56.41
2016-08-23T03:11:51.596Z,56.41
2016-08-23T03:12:50.780Z,56.13
2016-08-23T03:13:51.586Z,56.39
2016-08-23T03:14:51.555Z,56.2
2016-08-23T03:15:51.553Z,56.48
2016-08-23T03:16:50.746Z,56.29
2016-08-23T03:17:50.754Z,56.29
2016-08-23T03:18:51.540Z,56.29
2016-08-23T03:19:51.616Z,56.39
2016-08-23T03:20:51.531Z,56.2
2016-08-23T03:21:51.537Z,56.2
2016-08-23T03:22:51.578Z,56.29
2016-08-23T03:23:50.970Z,56.2
2016-08-23T03:24:52.768Z,56.1
2016-08-23T03:25:50.899Z,56.2
2016-08-23T03:26:50.814Z,56.2
2016-08-23T03:27:50.911Z,56.2
2016-08-23T03:28:51.619Z,56.2
2016-08-23T03:29:51.598Z,56.2
2016-08-23T03:30:50.879Z,56.41
2016-08-23T03:31:51.577Z,56.39
2016-08-23T03:32:51.644Z,56.2
2016-08-23T03:33:51.657Z,56.39
2016-08-23T03:34:51.763Z,56.22
2016-08-23T03:35:51.692Z,56.1
2016-08-23T03:36:51.720Z,56.1
2016-08-23T03:37:51.635Z,56.1
2016-08-23T03:38:51.757Z,56.39
2016-08-23T03:39:51.611Z,56.29
2016-08-23T03:40:51.629Z,56.39
2016-08-23T03:41:51.756Z,56.39
2016-08-23T03:42:51.723Z,56.29
2016-08-23T03:43:51.742Z,56.29
2016-08-23T03:44:51.681Z,56.39
2016-08-23T03:45:51.811Z,56.2
2016-08-23T03:46:50.951Z,56.39
2016-08-23T03:47:51.761Z,56.2
2016-08-23T03:48:50.962Z,56.2
2016-08-23T03:49:51.761Z,56.2
2016-08-23T03:50:51.800Z,56.39
2016-08-23T03:51:51.165Z,56.2
2016-08-23T03:52:51.698Z,56.48
2016-08-23T03:53:51.799Z,56.41
2016-08-23T03:54:51.870Z,56.2
2016-08-23T03:55:51.088Z,56.2
2016-08-23T03:56:51.106Z,56.2
2016-08-23T03:57:51.753Z,56.1
2016-08-23T03:58:51.159Z,56.2
2016-08-23T03:59:51.833Z,56.2
2016-08-23T04:00:51.853Z,56.1
2016-08-23T04:01:51.854Z,56
2016-08-23T04:02:51.770Z,56.32
2016-08-23T04:03:51.075Z,56.1
2016-08-23T04:04:51.924Z,56.29
2016-08-23T04:05:51.899Z,56.29
2016-08-23T04:06:51.263Z,56.29
2016-08-23T04:07:51.094Z,56.22
2016-08-23T04:08:52.057Z,56.41
2016-08-23T04:09:51.814Z,56.29
2016-08-23T04:10:51.114Z,56.39
2016-08-23T04:11:51.867Z,56.32
2016-08-23T04:12:51.128Z,56.39
2016-08-23T04:13:51.910Z,56.29
2016-08-23T04:14:51.946Z,56.2
2016-08-23T04:15:51.957Z,56.13
2016-08-23T04:16:51.879Z,56.39
2016-08-23T04:17:51.963Z,56.29
2016-08-23T04:18:51.168Z,56.48
2016-08-23T04:19:52.006Z,56.48
2016-08-23T04:20:51.285Z,56.39
2016-08-23T04:21:51.189Z,56.48
2016-08-23T04:22:51.947Z,56.1
2016-08-23T04:23:51.201Z,56.39
2016-08-23T04:24:51.973Z,56.48
2016-08-23T04:25:51.924Z,56.58
2016-08-23T04:26:51.988Z,56.39
2016-08-23T04:27:51.306Z,56.41
2016-08-23T04:28:52.004Z,56.29
2016-08-23T04:29:51.951Z,56.29
2016-08-23T04:30:51.966Z,56.2
2016-08-23T04:31:52.017Z,56.39
2016-08-23T04:32:52.081Z,56.48
2016-08-23T04:33:52.008Z,56.29
2016-08-23T04:34:51.328Z,56.1
2016-08-23T04:35:52.031Z,56.48
2016-08-23T04:36:51.997Z,56.29
2016-08-23T04:37:52.055Z,56.2
2016-08-23T04:38:51.345Z,56.48
2016-08-23T04:39:52.068Z,56.2
2016-08-23T04:40:52.025Z,56.48
2016-08-23T04:41:52.110Z,56.58
2016-08-23T04:42:52.124Z,56.2
2016-08-23T04:43:52.045Z,56.29
2016-08-23T04:44:52.160Z,56.29
2016-08-23T04:45:51.441Z,56.58
2016-08-23T04:46:51.534Z,56.58
2016-08-23T04:47:52.310Z,56.48
2016-08-23T04:48:51.371Z,56.39
2016-08-23T04:49:51.377Z,56.39
2016-08-23T04:50:51.385Z,56.58
2016-08-23T04:51:52.176Z,56.48
2016-08-23T04:52:52.112Z,56.71
2016-08-23T04:53:52.321Z,56.1
2016-08-23T04:54:51.523Z,56.58
2016-08-23T04:55:51.572Z,56.39
2016-08-23T04:56:51.430Z,56.39
2016-08-23T04:57:52.240Z,56.39
2016-08-23T04:58:52.148Z,56.29
2016-08-23T04:59:51.529Z,56.29
2016-08-23T05:00:52.351Z,56.41
2016-08-23T05:01:52.219Z,56.39
2016-08-23T05:02:52.266Z,56.51
2016-08-23T05:03:52.265Z,56.48
2016-08-23T05:04:52.236Z,55.9
2016-08-23T05:05:52.324Z,55.9
2016-08-23T05:06:52.356Z,55.9
2016-08-23T05:07:51.501Z,55.71
2016-08-23T05:08:52.373Z,55.71
2016-08-23T05:09:52.362Z,55.81
2016-08-23T05:10:51.525Z,55.81
2016-08-23T05:11:52.237Z,55.62
2016-08-23T05:12:52.426Z,55.83
2016-08-23T05:13:51.675Z,55.81
2016-08-23T05:14:51.721Z,56.13
2016-08-23T05:15:52.354Z,55.71
2016-08-23T05:16:51.716Z,56.2
2016-08-23T05:17:52.277Z,55.52
2016-08-23T05:18:52.316Z,55.62
2016-08-23T05:19:51.704Z,55.55
2016-08-23T05:20:52.297Z,55.81
2016-08-23T05:21:52.406Z,56
2016-08-23T05:22:53.352Z,55.55
2016-08-23T05:23:52.460Z,55.74
2016-08-23T05:24:52.327Z,55.65
2016-08-23T05:25:52.385Z,55.16
2016-08-23T05:26:52.472Z,54.87
2016-08-23T05:27:51.773Z,55.55
2016-08-23T05:28:52.368Z,55.35
2016-08-23T05:29:51.657Z,55.83
2016-08-23T05:30:52.561Z,55.45
2016-08-23T05:31:51.711Z,55.35
2016-08-23T05:32:51.684Z,54.97
2016-08-23T05:33:52.453Z,55.45
2016-08-23T05:34:52.547Z,55.07
2016-08-23T05:35:52.413Z,55.26
2016-08-23T05:36:52.479Z,55.35
2016-08-23T05:37:51.721Z,55.26
2016-08-23T05:38:52.501Z,55.55
2016-08-23T05:39:51.883Z,55.16
2016-08-23T05:40:52.576Z,55.35
2016-08-23T05:41:52.506Z,55.35
2016-08-23T05:42:51.761Z,55.74
2016-08-23T05:43:52.626Z,55.45
2016-08-23T05:44:51.773Z,55.55
2016-08-23T05:45:51.779Z,55.35
2016-08-23T05:46:52.496Z,55.55
2016-08-23T05:47:52.502Z,55.65
2016-08-23T05:48:52.513Z,55.45
2016-08-23T05:49:52.513Z,55.45
2016-08-23T05:50:52.524Z,55.26
2016-08-23T05:51:51.826Z,55.35
2016-08-23T05:52:51.832Z,55.26
2016-08-23T05:53:52.557Z,55.65
2016-08-23T05:54:52.638Z,55.45
2016-08-23T05:55:51.859Z,55.35
2016-08-23T05:56:51.945Z,55.26
2016-08-23T05:57:52.684Z,55.55
2016-08-23T05:58:52.602Z,55.16
2016-08-23T05:59:52.610Z,55.45
2016-08-23T06:00:51.892Z,55.07
2016-08-23T06:01:52.637Z,55.45
2016-08-23T06:02:52.037Z,55.93
2016-08-23T06:03:52.089Z,54.97
2016-08-23T06:04:51.918Z,55.16
2016-08-23T06:05:52.678Z,54.97
2016-08-23T06:06:52.646Z,55.07
2016-08-23T06:07:52.647Z,55.07
2016-08-23T06:08:51.948Z,54.97
2016-08-23T06:09:52.747Z,55.07
2016-08-23T06:10:52.669Z,54.49
2016-08-23T06:11:52.754Z,54.87
2016-08-23T06:12:52.682Z,54.58
2016-08-23T06:13:52.138Z,54.9
2016-08-23T06:14:51.988Z,54.77
2016-08-23T06:15:51.993Z,54.58
2016-08-23T06:16:52.709Z,54.49
2016-08-23T06:17:52.716Z,54.8
2016-08-23T06:18:52.015Z,55.07
2016-08-23T06:19:52.021Z,54.87
2016-08-23T06:20:52.856Z,54.97
2016-08-23T06:21:54.053Z,54.9
2016-08-23T06:22:52.748Z,54.49
2016-08-23T06:23:52.753Z,54.49
2016-08-23T06:24:52.769Z,54.61
2016-08-23T06:25:52.773Z,54.13
2016-08-23T06:26:52.779Z,53.83
2016-08-23T06:27:52.894Z,53.45
2016-08-23T06:28:52.794Z,52.99
2016-08-23T06:29:52.930Z,53.38
2016-08-23T06:30:52.809Z,53.28
2016-08-23T06:31:52.111Z,52.8
2016-08-23T06:32:52.830Z,52.7
2016-08-23T06:33:52.868Z,52.24
2016-08-23T06:34:52.894Z,52.14
2016-08-23T06:35:52.872Z,52.44
2016-08-23T06:36:53.027Z,52.24
2016-08-23T06:37:52.963Z,51.86
2016-08-23T06:38:52.174Z,52.05
2016-08-23T06:39:52.182Z,51.01
2016-08-23T06:40:52.947Z,51.5
2016-08-23T06:41:53.038Z,51.3
2016-08-23T06:42:52.327Z,51.68
2016-08-23T06:43:52.267Z,51.2
2016-08-23T06:44:52.938Z,51.1
2016-08-23T06:45:52.998Z,51.2
2016-08-23T06:46:52.976Z,51.01
2016-08-23T06:47:52.260Z,50.84
2016-08-23T06:48:52.997Z,50.72
2016-08-23T06:49:53.066Z,50.52
2016-08-23T06:50:52.998Z,50.26
2016-08-23T06:51:53.103Z,50.74
2016-08-23T06:52:53.018Z,50.24
2016-08-23T06:53:53.128Z,50.07
2016-08-23T06:54:53.095Z,50.07
2016-08-23T06:55:53.130Z,49.68
2016-08-23T06:56:52.350Z,50.16
2016-08-23T06:57:53.070Z,50.16
2016-08-23T06:58:52.379Z,49.49
2016-08-23T06:59:52.486Z,49.68
2016-08-23T07:00:53.177Z,49.39
2016-08-23T07:01:53.113Z,49.8
2016-08-23T07:02:52.411Z,49.7
2016-08-23T07:03:52.423Z,49.77
2016-08-23T07:04:52.436Z,49.61
2016-08-23T07:05:52.445Z,49.61
2016-08-23T07:06:53.162Z,49.51
2016-08-23T07:07:53.184Z,49.61
2016-08-23T07:08:53.294Z,49.8
2016-08-23T07:09:52.534Z,49.7
2016-08-23T07:10:53.285Z,50.84
2016-08-23T07:11:53.223Z,51.23
2016-08-23T07:12:53.328Z,51.2
2016-08-23T07:13:53.249Z,51.4
2016-08-23T07:14:53.257Z,51.98
2016-08-23T07:15:52.543Z,51.47
2016-08-23T07:16:53.259Z,51.95
2016-08-23T07:17:53.268Z,51.86
2016-08-23T07:18:53.279Z,51.95
2016-08-23T07:19:53.286Z,51.66
2016-08-23T07:20:52.590Z,52.53
2016-08-23T07:21:53.331Z,52.53
2016-08-23T07:22:53.323Z,52.44
2016-08-23T07:23:53.415Z,52.44
2016-08-23T07:24:53.399Z,52.05
2016-08-23T07:25:53.338Z,52.34
2016-08-23T07:26:53.437Z,52.44
2016-08-23T07:27:52.652Z,52.44
2016-08-23T07:28:53.428Z,52.63
2016-08-23T07:29:53.368Z,53.02
2016-08-23T07:30:52.722Z,53.28
2016-08-23T07:31:52.677Z,54.53
2016-08-23T07:32:53.467Z,54.51
2016-08-23T07:33:53.401Z,54.35
2016-08-23T07:34:53.412Z,54.83
2016-08-23T07:35:53.487Z,54.44
2016-08-23T07:36:52.877Z,54.63
2016-08-23T07:37:53.478Z,54.32
2016-08-23T07:38:53.435Z,54.22
2016-08-23T07:39:53.439Z,54.61
2016-08-23T07:40:53.449Z,54.41
2016-08-23T07:41:52.763Z,54.51
2016-08-23T07:42:53.460Z,54.51
2016-08-23T07:45:01.844Z,55.77
2016-08-23T07:46:02.562Z,55.83
2016-08-23T07:47:01.857Z,54.71
2016-08-23T07:48:02.569Z,54.22
2016-08-23T07:49:02.576Z,54.41
2016-08-23T07:50:01.877Z,54.61
2016-08-23T07:51:02.643Z,54.22
2016-08-23T07:52:02.596Z,54.9
2016-08-23T07:53:01.897Z,55.87
2016-08-23T07:54:01.958Z,56.03
2016-08-23T07:55:02.616Z,55.29
2016-08-23T07:56:02.619Z,54.99
2016-08-23T07:57:01.918Z,54.99
2016-08-23T07:58:02.636Z,55.38
2016-08-23T07:59:02.637Z,56.25
2016-08-23T08:00:01.968Z,56.51
2016-08-23T08:01:02.651Z,55.74
2016-08-23T08:02:02.658Z,56.8
2016-08-23T08:03:02.663Z,56.32
2016-08-23T08:04:02.669Z,55.77
2016-08-23T08:05:02.672Z,56.22
2016-08-23T08:06:02.679Z,57.38
2016-08-23T08:07:02.686Z,56.22
2016-08-23T08:08:02.692Z,56.63
2016-08-23T08:09:01.989Z,56.51
2016-08-23T08:10:02.701Z,56.03
2016-08-23T08:11:02.708Z,55.87
2016-08-23T08:12:02.713Z,56.45
2016-08-23T08:13:02.009Z,56.51
2016-08-23T08:14:02.017Z,56.51
2016-08-23T08:15:02.071Z,56.51
2016-08-23T08:16:02.733Z,56.71
2016-08-23T08:17:02.738Z,56.32
2016-08-23T08:18:02.038Z,56.71
2016-08-23T08:19:02.044Z,56.32
2016-08-23T08:20:03.507Z,56.41
2016-08-23T08:21:02.761Z,56.51
2016-08-23T08:22:02.063Z,55.55
2016-08-23T08:23:02.061Z,55.67
2016-08-23T08:24:02.776Z,55.77
2016-08-23T08:25:02.075Z,55.57
2016-08-23T08:26:02.080Z,55.77
2016-08-23T08:27:02.843Z,54.99
2016-08-23T08:28:02.140Z,54.99
2016-08-23T08:29:03.291Z,55.55
2016-08-23T08:30:02.816Z,55.55
2016-08-23T08:31:02.973Z,55.29
2016-08-23T08:32:02.817Z,54.99
2016-08-23T08:33:02.120Z,54.71
2016-08-23T08:34:02.832Z,54.9
2016-08-23T08:35:02.839Z,54.61
2016-08-23T08:36:02.893Z,54.8
2016-08-23T08:37:02.852Z,55.19
2016-08-23T08:38:02.909Z,54.71
2016-08-23T08:39:02.863Z,55.09
2016-08-23T08:40:02.912Z,55.09
2016-08-23T08:41:02.876Z,54.39
2016-08-23T08:42:02.491Z,54.99
2016-08-23T08:43:02.189Z,54.8
2016-08-23T08:44:02.945Z,54.9
2016-08-23T08:45:02.904Z,54.22
2016-08-23T08:46:02.202Z,53.93
2016-08-23T08:47:02.963Z,53.83
2016-08-23T08:48:02.218Z,53.64
2016-08-23T08:49:02.928Z,53.86
2016-08-23T08:50:02.934Z,53.57
2016-08-23T08:51:02.637Z,53.57
2016-08-23T08:52:02.247Z,53.77
2016-08-23T08:53:02.251Z,53.47
2016-08-23T08:54:02.258Z,53.67
2016-08-23T08:55:02.981Z,53.57
2016-08-23T08:56:02.974Z,53.77
2016-08-23T08:57:02.984Z,53.96
2016-08-23T08:58:02.991Z,53.67
2016-08-23T08:59:02.301Z,53.57
2016-08-23T09:00:03.003Z,53.67
2016-08-23T09:01:02.301Z,54.15
2016-08-23T09:02:03.116Z,53.96
2016-08-23T09:03:03.070Z,53.86
2016-08-23T09:04:03.970Z,53.83
2016-08-23T09:05:03.035Z,53.86
2016-08-23T09:06:03.039Z,53.86
2016-08-23T09:07:02.339Z,54.05
2016-08-23T09:08:03.051Z,53.86
2016-08-23T09:09:03.055Z,53.86
2016-08-23T09:10:03.063Z,53.77
2016-08-23T09:11:02.365Z,53.38
2016-08-23T09:12:02.366Z,53.77
2016-08-23T09:13:02.425Z,53.86
2016-08-23T09:14:03.137Z,53.96
2016-08-23T09:15:03.630Z,53.38
2016-08-23T09:16:03.099Z,53.67
2016-08-23T09:17:02.403Z,53.86
2016-08-23T09:18:02.406Z,53.77
2016-08-23T09:19:03.120Z,54.15
2016-08-23T09:20:03.129Z,54.35
2016-08-23T09:21:02.425Z,53.47
2016-08-23T09:22:03.137Z,54.83
2016-08-23T09:23:03.145Z,54.66
2016-08-23T09:24:03.151Z,54.17
2016-08-23T09:25:02.448Z,54.53
2016-08-23T09:26:04.216Z,53.86
2016-08-23T09:27:02.462Z,54.63
2016-08-23T09:28:02.466Z,54.17
2016-08-23T09:29:03.179Z,53.57
2016-08-23T09:30:03.186Z,53.86
2016-08-23T09:31:03.243Z,54.44
2016-08-23T09:32:02.493Z,54.85
2016-08-23T09:33:03.206Z,54.15
2016-08-23T09:34:03.212Z,53.86
2016-08-23T09:35:03.215Z,53.77
2016-08-23T09:36:03.224Z,54.25
2016-08-23T09:37:03.422Z,54.83
2016-08-23T09:38:02.528Z,53.77
2016-08-23T09:39:03.239Z,53.86
2016-08-23T09:40:02.542Z,54.53
2016-08-23T09:41:02.553Z,54.73
2016-08-23T09:42:02.554Z,53.96
2016-08-23T09:43:02.562Z,53.47
2016-08-23T09:44:03.279Z,53.77
2016-08-23T09:45:02.574Z,53.86
2016-08-23T09:46:02.580Z,53.89
2016-08-23T09:47:02.587Z,54.44
2016-08-23T09:48:03.698Z,53.59
2016-08-23T09:49:02.604Z,53.59
2016-08-23T09:50:03.363Z,53.99
2016-08-23T09:51:02.613Z,53.79
2016-08-23T09:52:03.325Z,53.59
2016-08-23T09:53:03.379Z,53.59
2016-08-23T09:54:02.631Z,53.89
2016-08-23T09:55:03.344Z,53.89
2016-08-23T09:56:03.347Z,53.69
2016-08-23T09:57:03.863Z,54.08
2016-08-23T09:58:03.363Z,53.79
2016-08-23T09:59:03.426Z,53.89
2016-08-23T10:00:02.668Z,53.69
2016-08-23T10:01:02.675Z,53.86
2016-08-23T10:02:03.439Z,53.89
2016-08-23T10:03:03.396Z,53.99
2016-08-23T10:04:02.691Z,54.15
2016-08-23T10:05:02.699Z,53.89
2016-08-23T10:06:02.733Z,54.15
2016-08-23T10:07:03.421Z,53.79
2016-08-23T10:08:03.479Z,54.05
2016-08-23T10:09:02.726Z,53.5
2016-08-23T10:10:02.738Z,53.89
2016-08-23T10:11:02.742Z,54.37
2016-08-23T10:12:03.504Z,54.37
2016-08-23T10:13:02.752Z,53.79
2016-08-23T10:14:03.467Z,54.27
2016-08-23T10:15:02.768Z,54.08
2016-08-23T10:16:02.774Z,54.44
2016-08-23T10:17:03.495Z,54.57
2016-08-23T10:18:02.788Z,54.66
2016-08-23T10:19:03.505Z,54.08
2016-08-23T10:20:02.803Z,53.89
2016-08-23T10:21:03.516Z,53.89
2016-08-23T10:22:03.521Z,54.85
2016-08-23T10:23:02.870Z,53.02
2016-08-23T10:24:02.833Z,53.89
2016-08-23T10:25:02.831Z,53.79
2016-08-23T10:26:03.554Z,53.59
2016-08-23T10:27:03.552Z,54.17
2016-08-23T10:28:03.561Z,53.89
2016-08-23T10:29:03.565Z,53.79
2016-08-23T10:30:03.623Z,53.79
2016-08-23T10:31:03.581Z,54.27
2016-08-23T10:32:02.928Z,54.25
2016-08-23T10:33:02.897Z,54.25
2016-08-23T10:34:03.601Z,54.35
2016-08-23T10:35:03.610Z,53.67
2016-08-23T10:36:02.912Z,54.05
2016-08-23T10:37:02.911Z,53.79
2016-08-23T10:38:02.920Z,53.89
2016-08-23T10:39:02.925Z,53.57
2016-08-23T10:40:02.935Z,54.35
2016-08-23T10:41:03.648Z,54.75
2016-08-23T10:42:04.159Z,53.89
2016-08-23T10:43:02.953Z,53.89
2016-08-23T10:44:02.959Z,53.69
2016-08-23T10:45:02.966Z,53.89
2016-08-23T10:46:03.680Z,53.69
2016-08-23T10:47:03.690Z,53.89
2016-08-23T10:48:03.691Z,53.99
2016-08-23T10:49:03.747Z,54.08
2016-08-23T10:50:03.010Z,53.5
2016-08-23T10:51:03.005Z,53.5
2016-08-23T10:52:03.019Z,53.69
2016-08-23T10:53:03.728Z,53.5
2016-08-23T10:54:04.392Z,53.5
2016-08-23T10:55:03.741Z,53.69
2016-08-23T10:56:03.758Z,53.59
2016-08-23T10:57:03.758Z,53.89
2016-08-23T10:58:03.766Z,53.69
2016-08-23T10:59:03.066Z,53.69
2016-08-23T11:00:03.073Z,53.41
2016-08-23T11:01:03.787Z,53.69
2016-08-23T11:02:03.791Z,53.5
2016-08-23T11:03:03.095Z,53.59
2016-08-23T11:04:03.810Z,53.69
2016-08-23T11:05:04.116Z,53.69
2016-08-23T11:06:03.133Z,53.5
2016-08-23T11:07:03.850Z,53.89
2016-08-23T11:08:03.840Z,53.59
2016-08-23T11:09:03.896Z,53.69
2016-08-23T11:10:03.901Z,53.59
2016-08-23T11:11:03.861Z,53.69
2016-08-23T11:12:03.868Z,53.59
2016-08-23T11:13:03.880Z,53.79
2016-08-23T11:14:18.053Z,53.69
2016-08-23T11:15:03.891Z,53.5
2016-08-23T11:16:03.898Z,53.99
2016-08-23T11:17:03.903Z,53.69
2016-08-23T11:18:03.915Z,53.5
2016-08-23T11:19:03.921Z,53.99
2016-08-23T11:20:03.928Z,53.69
2016-08-23T11:21:03.225Z,53.79
2016-08-23T11:22:03.945Z,53.69
2016-08-23T11:23:03.244Z,53.99
2016-08-23T11:24:03.249Z,53.79
2016-08-23T11:25:03.908Z,53.59
2016-08-23T11:26:04.021Z,53.69
2016-08-23T11:27:03.976Z,54.17
2016-08-23T11:28:03.276Z,53.59
2016-08-23T11:29:05.086Z,53.41
2016-08-23T11:30:03.294Z,53.79
2016-08-23T11:31:03.304Z,53.59
2016-08-23T11:32:03.358Z,53.21
2016-08-23T11:33:04.023Z,53.41
2016-08-23T11:34:04.035Z,52.92
2016-08-23T11:35:03.330Z,52.82
2016-08-23T11:36:04.196Z,52.92
2016-08-23T11:37:04.050Z,52.92
2016-08-23T11:38:03.350Z,53.21
2016-08-23T11:39:04.067Z,53.31
2016-08-23T11:40:03.372Z,53.31
2016-08-23T11:41:04.082Z,53.31
2016-08-23T11:42:04.091Z,53.21
2016-08-23T11:43:04.093Z,53.41
2016-08-23T11:44:04.151Z,53.21
2016-08-23T11:45:03.408Z,53.31
2016-08-23T11:46:04.117Z,53.21
2016-08-23T11:47:03.418Z,53.5
2016-08-23T11:48:04.131Z,53.41
2016-08-23T11:49:05.031Z,53.02
2016-08-23T11:50:04.148Z,53.31
2016-08-23T11:51:04.701Z,52.92
2016-08-23T11:52:04.161Z,53.11
2016-08-23T11:53:04.170Z,53.11
2016-08-23T11:54:03.470Z,53.11
2016-08-23T11:55:03.525Z,52.92
2016-08-23T11:56:03.484Z,53.21
2016-08-23T11:57:03.491Z,53.11
2016-08-23T11:58:04.206Z,53.11
2016-08-23T11:59:04.215Z,53.31
2016-08-23T12:00:04.850Z,53.99
2016-08-23T12:01:04.228Z,53.5
2016-08-23T12:02:04.581Z,53.99
2016-08-23T12:03:04.243Z,53.91
2016-08-23T12:04:03.549Z,53.91
2016-08-23T12:05:04.257Z,53.99
2016-08-23T12:06:04.268Z,53.59
2016-08-23T12:07:03.566Z,53.69
2016-08-23T12:08:04.330Z,53.91
2016-08-23T12:09:04.289Z,53.41
2016-08-23T12:10:03.590Z,53.21
2016-08-23T12:11:05.302Z,53.31
2016-08-23T12:12:04.309Z,53.41
2016-08-23T12:13:04.320Z,53.11
2016-08-23T12:14:03.620Z,53.43
2016-08-23T12:15:04.382Z,53.41
2016-08-23T12:16:03.634Z,53.14
2016-08-23T12:17:04.349Z,53.02
2016-08-23T12:18:04.356Z,52.95
2016-08-23T12:19:04.364Z,52.82
2016-08-23T12:20:04.372Z,52.92
2016-08-23T12:21:03.670Z,53.41
2016-08-23T12:22:05.338Z,53.5
2016-08-23T12:23:03.685Z,52.92
2016-08-23T12:24:04.402Z,53.31
2016-08-23T12:25:04.408Z,53.11
2016-08-23T12:26:03.706Z,53.11
2016-08-23T12:27:03.716Z,53.23
2016-08-23T12:28:04.437Z,52.82
2016-08-23T12:29:04.437Z,53.02
2016-08-23T12:30:04.445Z,53.02
2016-08-23T12:31:04.451Z,52.92
2016-08-23T12:32:04.461Z,53.72
2016-08-23T12:33:04.409Z,53.91
2016-08-23T12:34:04.473Z,53.72
2016-08-23T12:35:03.979Z,53.53
2016-08-23T12:36:03.830Z,54.08
2016-08-23T12:37:04.500Z,53.23
2016-08-23T12:38:04.504Z,53.41
2016-08-23T12:39:04.512Z,53.31
2016-08-23T12:40:03.811Z,53.33
2016-08-23T12:41:03.820Z,52.53
2016-08-23T12:43:03.835Z,53.14
2016-08-23T12:44:04.897Z,52.92
2016-08-23T12:45:03.848Z,52.82
2016-08-23T12:46:04.111Z,53.11
2016-08-23T12:47:04.570Z,53.31
2016-08-23T12:48:04.577Z,53.21
2016-08-23T12:49:03.876Z,53.5
2016-08-23T12:50:03.939Z,53.02
2016-08-23T12:51:04.603Z,52.46
2016-08-23T12:52:04.604Z,53.14
2016-08-23T12:53:04.611Z,52.95
2016-08-23T12:54:03.910Z,53.5
2016-08-23T12:55:04.119Z,53.23
2016-08-23T12:56:03.928Z,53.5
2016-08-23T12:57:03.933Z,53.21
2016-08-23T12:58:03.939Z,53.5